Time;durP1;ratioP1;P1;durP2;ratioP2;P2;SDS_P1;SDS_P2;PMS_P1;PMS_P2;Temp;Humidity;BMP_temperature;BMP_pressure;BME280_temperature;BME280_humidity;BME280_pressure;Samples;Min_cycle;Max_cycle;Signal;HPM_P1;HPM_P2
2023/05/16 00:00:39;;;;;;;25.48;13.63;;;12.40;91.10;;;;;;5005393;28;20060;-75
2023/05/16 00:03:06;;;;;;;24.95;13.07;;;12.40;90.70;;;;;;5003406;28;20059;-75
2023/05/16 00:05:33;;;;;;;34.53;13.95;;;12.40;90.60;;;;;;5004442;28;20608;-74
2023/05/16 00:08:00;;;;;;;29.67;13.25;;;12.40;90.60;;;;;;5004712;28;20072;-75
2023/05/16 00:10:27;;;;;;;24.42;13.27;;;12.40;90.10;;;;;;5002282;28;20050;-75
2023/05/16 00:12:55;;;;;;;25.33;12.80;;;12.40;89.70;;;;;;4998827;28;20054;-75
2023/05/16 00:15:23;;;;;;;24.50;12.10;;;12.40;89.00;;;;;;5004437;28;20089;-75
2023/05/16 00:17:50;;;;;;;19.42;11.70;;;12.40;88.00;;;;;;5014163;28;20148;-75
2023/05/16 00:20:22;;;;;;;29.30;13.10;;;12.40;87.80;;;;;;5005102;28;20052;-75
2023/05/16 00:22:49;;;;;;;24.13;11.38;;;12.30;87.20;;;;;;4999525;28;20038;-75
2023/05/16 00:25:16;;;;;;;23.13;11.07;;;12.30;86.70;;;;;;5005156;28;20046;-75
2023/05/16 00:27:43;;;;;;;22.63;10.82;;;12.30;86.70;;;;;;5012756;28;20054;-74
2023/05/16 00:30:10;;;;;;;24.50;10.82;;;12.30;86.70;;;;;;5000944;28;20053;-74
2023/05/16 00:32:38;;;;;;;27.27;11.82;;;12.30;86.70;;;;;;5003662;28;20050;-74
2023/05/16 00:35:05;;;;;;;21.05;11.45;;;12.30;86.60;;;;;;5005076;28;20050;-74
2023/05/16 00:37:32;;;;;;;25.55;9.48;;;12.30;87.00;;;;;;5009050;28;20059;-75
2023/05/16 00:39:59;;;;;;;30.58;10.95;;;12.20;86.50;;;;;;4996258;28;20057;-74
2023/05/16 00:42:26;;;;;;;25.42;10.23;;;12.20;86.00;;;;;;5007422;28;20388;-75
2023/05/16 00:44:53;;;;;;;17.45;9.95;;;12.20;86.10;;;;;;5001766;28;20421;-75
2023/05/16 00:47:19;;;;;;;19.70;10.52;;;12.20;86.20;;;;;;5007408;28;20137;-75
2023/05/16 00:49:46;;;;;;;18.42;10.05;;;12.20;86.10;;;;;;5002132;28;20057;-75
2023/05/16 00:52:14;;;;;;;22.23;10.20;;;12.20;86.50;;;;;;5003724;28;20135;-75
2023/05/16 00:54:41;;;;;;;20.58;9.57;;;12.20;86.30;;;;;;4998158;28;20046;-75
2023/05/16 00:57:08;;;;;;;20.73;9.98;;;12.10;86.70;;;;;;4999839;28;20141;-75
2023/05/16 00:59:35;;;;;;;21.65;10.15;;;12.20;86.60;;;;;;5005686;28;20053;-74
2023/05/16 01:02:02;;;;;;;24.10;10.18;;;12.20;86.20;;;;;;5001657;28;20485;-74
2023/05/16 01:04:31;;;;;;;20.52;10.57;;;12.10;86.10;;;;;;5000900;28;20049;-75
2023/05/16 01:06:58;;;;;;;20.33;10.68;;;12.10;86.20;;;;;;4996054;28;20144;-74
2023/05/16 01:09:24;;;;;;;22.70;11.05;;;12.10;86.40;;;;;;5007195;28;20049;-74
2023/05/16 01:12:02;;;;;;;16.80;9.77;;;12.00;86.40;;;;;;5004013;28;20112;-74
2023/05/16 01:14:35;;;;;;;23.02;9.88;;;12.00;86.70;;;;;;5000852;28;20042;-75
2023/05/16 01:17:35;;;;;;;20.40;10.02;;;12.00;85.90;;;;;;5000863;28;20455;-75
2023/05/16 01:20:16;;;;;;;16.30;9.57;;;12.00;85.70;;;;;;4997208;28;20049;-75
2023/05/16 01:22:44;;;;;;;24.80;9.27;;;12.00;86.00;;;;;;4997692;28;20082;-75
2023/05/16 01:25:40;;;;;;;28.85;9.63;;;11.90;86.00;;;;;;5000455;28;20443;-75
2023/05/16 01:28:08;;;;;;;21.92;9.82;;;11.90;85.90;;;;;;5000544;28;20054;-75
2023/05/16 01:30:37;;;;;;;20.45;10.80;;;11.90;86.20;;;;;;5002010;28;20049;-75
2023/05/16 01:33:04;;;;;;;19.08;10.55;;;11.80;85.70;;;;;;5002391;28;20058;-75
2023/05/16 01:35:32;;;;;;;19.05;10.27;;;11.80;86.00;;;;;;5000487;28;20180;-75
2023/05/16 01:38:14;;;;;;;21.98;10.85;;;11.80;86.00;;;;;;5004427;28;20061;-75
2023/05/16 01:41:03;;;;;;;19.08;10.52;;;11.70;86.10;;;;;;5002658;28;20050;-75
2023/05/16 01:43:44;;;;;;;21.38;9.45;;;11.70;86.10;;;;;;5007579;28;20188;-74
2023/05/16 01:46:34;;;;;;;18.90;9.05;;;11.60;85.80;;;;;;4993153;28;20406;-75
2023/05/16 01:49:06;;;;;;;16.42;9.10;;;11.60;85.70;;;;;;5001421;28;20476;-75
2023/05/16 01:51:37;;;;;;;16.77;8.77;;;11.50;85.80;;;;;;5013284;28;20049;-75
2023/05/16 01:54:09;;;;;;;21.98;9.20;;;11.50;86.10;;;;;;5000576;28;20076;-74
2023/05/16 01:56:37;;;;;;;19.88;9.38;;;11.50;86.20;;;;;;5011624;28;20058;-75
2023/05/16 01:59:04;;;;;;;29.05;10.73;;;11.40;86.30;;;;;;4995930;28;20042;-75
2023/05/16 02:01:31;;;;;;;19.83;9.15;;;11.40;86.50;;;;;;4992162;28;20073;-74
2023/05/16 02:03:58;;;;;;;19.67;10.23;;;11.30;86.50;;;;;;4997676;28;20172;-75
2023/05/16 02:06:25;;;;;;;18.35;9.98;;;11.30;86.50;;;;;;4998294;28;20050;-75
2023/05/16 02:08:52;;;;;;;22.50;11.07;;;11.20;86.50;;;;;;5001543;28;20430;-75
2023/05/16 02:11:19;;;;;;;20.60;11.55;;;11.20;86.70;;;;;;5011867;28;20061;-75
2023/05/16 02:13:45;;;;;;;22.60;10.43;;;11.10;86.80;;;;;;4999480;28;20046;-75
2023/05/16 02:16:12;;;;;;;22.77;10.57;;;11.10;87.10;;;;;;5008267;28;20064;-75
2023/05/16 02:18:40;;;;;;;20.70;10.52;;;11.10;87.40;;;;;;5006869;28;20457;-75
2023/05/16 02:21:07;;;;;;;23.90;10.60;;;11.10;87.90;;;;;;5000920;28;20064;-75
2023/05/16 02:23:34;;;;;;;21.33;10.63;;;11.10;87.80;;;;;;5002966;28;20057;-75
2023/05/16 02:26:01;;;;;;;24.42;11.65;;;11.00;87.30;;;;;;5001097;28;20539;-75
2023/05/16 02:28:28;;;;;;;22.88;10.68;;;11.00;87.40;;;;;;5000774;28;20058;-75
2023/05/16 02:30:56;;;;;;;26.13;11.63;;;10.90;87.70;;;;;;5013052;28;20054;-75
2023/05/16 02:33:27;;;;;;;22.13;10.68;;;10.90;87.70;;;;;;5003032;28;20061;-76
2023/05/16 02:35:54;;;;;;;19.85;10.88;;;10.80;87.90;;;;;;5001919;28;20042;-76
2023/05/16 02:38:21;;;;;;;21.35;10.63;;;10.80;88.00;;;;;;5003829;28;20453;-76
2023/05/16 02:40:49;;;;;;;27.55;10.85;;;10.80;87.80;;;;;;5001779;28;20361;-76
2023/05/16 02:43:16;;;;;;;24.95;10.65;;;10.80;87.40;;;;;;5003781;28;20052;-76
2023/05/16 02:45:43;;;;;;;21.92;10.95;;;10.80;87.60;;;;;;5001039;28;20454;-75
2023/05/16 02:48:10;;;;;;;25.55;11.00;;;10.80;87.70;;;;;;5008604;28;20049;-76
2023/05/16 02:50:39;;;;;;;29.80;11.23;;;10.80;87.90;;;;;;5013384;28;20049;-76
2023/05/16 02:53:05;;;;;;;21.73;11.00;;;10.80;88.30;;;;;;5006297;28;20082;-75
2023/05/16 02:55:33;;;;;;;19.20;10.75;;;10.80;87.90;;;;;;5008373;28;20056;-75
2023/05/16 02:58:00;;;;;;;26.67;11.32;;;10.70;88.10;;;;;;5009704;28;20065;-75
2023/05/16 03:00:26;;;;;;;21.55;11.10;;;10.70;88.10;;;;;;5006861;28;20050;-76
2023/05/16 03:02:53;;;;;;;27.45;10.80;;;10.70;87.60;;;;;;5005051;28;20066;-76
2023/05/16 03:05:20;;;;;;;24.00;11.48;;;10.70;87.80;;;;;;5003458;28;20046;-76
2023/05/16 03:07:47;;;;;;;26.30;10.25;;;10.70;87.70;;;;;;5003702;28;20050;-76
2023/05/16 03:10:14;;;;;;;22.92;9.95;;;10.60;88.00;;;;;;5006509;28;20405;-75
2023/05/16 03:12:41;;;;;;;20.73;9.85;;;10.60;87.40;;;;;;5001195;28;20498;-76
2023/05/16 03:15:08;;;;;;;29.23;10.18;;;10.50;87.50;;;;;;5002898;28;20647;-76
2023/05/16 03:17:35;;;;;;;18.38;9.50;;;10.50;87.90;;;;;;5001315;28;20057;-75
2023/05/16 03:20:04;;;;;;;19.75;9.02;;;10.50;88.00;;;;;;5003771;28;20456;-75
2023/05/16 03:22:30;;;;;;;23.33;9.95;;;10.50;88.20;;;;;;4999706;28;20046;-75
2023/05/16 03:24:57;;;;;;;18.58;9.20;;;10.50;88.10;;;;;;4997443;28;20061;-76
2023/05/16 03:27:26;;;;;;;24.10;9.40;;;10.50;87.90;;;;;;5006008;28;20054;-75
2023/05/16 03:29:53;;;;;;;21.70;8.88;;;10.50;88.00;;;;;;5016740;28;20054;-75
2023/05/16 03:32:19;;;;;;;21.33;9.80;;;10.50;87.90;;;;;;5001551;28;20057;-75
2023/05/16 03:34:46;;;;;;;21.55;10.18;;;10.50;87.70;;;;;;4997379;28;20119;-75
2023/05/16 03:37:14;;;;;;;23.98;8.63;;;10.40;88.10;;;;;;4999623;28;20392;-75
2023/05/16 03:39:41;;;;;;;17.13;8.57;;;10.40;87.90;;;;;;4998983;28;20050;-76
2023/05/16 03:42:08;;;;;;;16.77;8.43;;;10.40;88.00;;;;;;4994409;28;20060;-76
2023/05/16 03:44:35;;;;;;;25.77;9.02;;;10.50;87.90;;;;;;5003802;28;20054;-75
2023/05/16 03:47:02;;;;;;;21.95;8.20;;;10.50;87.60;;;;;;5002315;28;20365;-76
2023/05/16 03:49:29;;;;;;;18.63;7.45;;;10.50;87.40;;;;;;5006778;28;20270;-76
2023/05/16 03:51:56;;;;;;;14.10;7.13;;;10.50;87.60;;;;;;5008528;28;20333;-76
2023/05/16 03:54:23;;;;;;;15.57;7.40;;;10.50;87.30;;;;;;5006276;28;20125;-75
2023/05/16 03:56:49;;;;;;;18.23;7.47;;;10.50;87.20;;;;;;4999917;28;20383;-75
2023/05/16 03:59:16;;;;;;;17.48;7.13;;;10.50;86.90;;;;;;5001856;28;20638;-75
2023/05/16 04:01:43;;;;;;;18.33;7.50;;;10.50;86.70;;;;;;4999365;28;20519;-75
2023/05/16 04:04:10;;;;;;;14.52;6.47;;;10.50;86.50;;;;;;5001479;28;20108;-76
2023/05/16 04:06:37;;;;;;;14.98;7.28;;;10.50;86.80;;;;;;5002558;28;20061;-75
2023/05/16 04:09:05;;;;;;;17.17;7.90;;;10.50;86.60;;;;;;5004128;28;20058;-75
2023/05/16 04:11:33;;;;;;;16.95;7.40;;;10.50;86.40;;;;;;5001028;28;20061;-75
2023/05/16 04:14:00;;;;;;;18.58;6.68;;;10.40;86.40;;;;;;4999711;28;20054;-75
2023/05/16 04:16:27;;;;;;;12.13;6.38;;;10.50;86.30;;;;;;5001324;28;20053;-75
2023/05/16 04:18:55;;;;;;;13.73;6.40;;;10.50;86.50;;;;;;5000755;28;20418;-75
2023/05/16 04:21:22;;;;;;;16.27;7.90;;;10.50;86.30;;;;;;5002085;28;20127;-75
2023/05/16 04:23:49;;;;;;;13.80;7.47;;;10.40;86.80;;;;;;4999527;28;20056;-75
2023/05/16 04:26:16;;;;;;;13.65;7.15;;;10.40;86.40;;;;;;4999608;28;20037;-75
2023/05/16 04:28:42;;;;;;;14.60;6.85;;;10.40;86.70;;;;;;5001165;28;20052;-75
2023/05/16 04:31:10;;;;;;;11.93;6.22;;;10.40;86.40;;;;;;5001162;28;20475;-75
2023/05/16 04:33:37;;;;;;;16.83;7.78;;;10.40;86.10;;;;;;5001763;28;20132;-75
2023/05/16 04:36:04;;;;;;;12.38;5.93;;;10.40;86.70;;;;;;4998407;28;20050;-75
2023/05/16 04:38:31;;;;;;;16.95;5.90;;;10.40;86.60;;;;;;5002107;28;20064;-75
2023/05/16 04:40:58;;;;;;;15.23;5.60;;;10.40;86.50;;;;;;5004680;28;20042;-75
2023/05/16 04:43:25;;;;;;;13.90;6.00;;;10.40;86.30;;;;;;5003691;28;20080;-76
2023/05/16 04:45:57;;;;;;;14.60;5.50;;;10.40;85.40;;;;;;5006017;28;20431;-75
2023/05/16 04:48:24;;;;;;;16.88;5.00;;;10.40;84.70;;;;;;5000477;28;20490;-76
2023/05/16 04:50:51;;;;;;;11.00;5.20;;;10.50;84.20;;;;;;5002662;28;20054;-75
2023/05/16 04:53:18;;;;;;;14.05;4.50;;;10.50;84.00;;;;;;5001485;28;20340;-77
2023/05/16 04:55:45;;;;;;;16.90;4.28;;;10.50;83.70;;;;;;5008010;28;20470;-76
2023/05/16 04:58:11;;;;;;;8.48;3.20;;;10.50;82.10;;;;;;5002233;28;20057;-76
2023/05/16 05:00:38;;;;;;;8.45;3.40;;;10.40;81.50;;;;;;4991905;28;20045;-78
2023/05/16 05:03:05;;;;;;;9.75;2.67;;;10.30;81.20;;;;;;4996713;28;20180;-77
2023/05/16 05:05:32;;;;;;;10.85;2.80;;;10.30;80.00;;;;;;4996973;28;20605;-77
2023/05/16 05:08:00;;;;;;;10.48;2.80;;;10.30;79.60;;;;;;4998642;28;20176;-81
2023/05/16 05:10:27;;;;;;;7.47;2.28;;;10.20;79.30;;;;;;5000210;28;20145;-80
2023/05/16 05:12:54;;;;;;;13.10;2.75;;;10.20;79.60;;;;;;5001726;28;20065;-79
2023/05/16 05:15:20;;;;;;;11.73;3.00;;;10.20;79.60;;;;;;4999118;28;20505;-79
2023/05/16 05:17:47;;;;;;;8.13;2.25;;;10.20;78.70;;;;;;5007232;28;20057;-79
2023/05/16 05:20:14;;;;;;;12.15;2.58;;;10.10;78.70;;;;;;4999896;28;20095;-78
2023/05/16 05:22:41;;;;;;;13.90;3.22;;;10.10;79.20;;;;;;5001736;28;20141;-77
2023/05/16 05:25:08;;;;;;;11.95;2.70;;;10.10;78.80;;;;;;5006578;28;20386;-78
2023/05/16 05:27:35;;;;;;;16.33;3.30;;;10.10;79.30;;;;;;5009576;28;20411;-78
2023/05/16 05:30:02;;;;;;;16.52;3.20;;;10.10;79.30;;;;;;5006314;28;20473;-76
2023/05/16 05:32:29;;;;;;;13.40;2.35;;;10.10;79.30;;;;;;5010269;28;20510;-80
2023/05/16 05:34:57;;;;;;;13.77;2.63;;;10.10;79.00;;;;;;4999279;28;20045;-77
2023/05/16 05:37:24;;;;;;;12.65;2.65;;;10.10;79.30;;;;;;4996429;28;20046;-77
2023/05/16 05:39:51;;;;;;;7.82;2.25;;;10.20;79.40;;;;;;4998846;28;20060;-77
2023/05/16 05:42:18;;;;;;;16.55;2.33;;;10.20;79.80;;;;;;4999642;28;20109;-77
2023/05/16 05:44:44;;;;;;;9.10;2.47;;;10.20;79.30;;;;;;4999096;28;20049;-76
2023/05/16 05:47:12;;;;;;;17.83;2.45;;;10.30;79.10;;;;;;5007509;28;20050;-77
2023/05/16 05:49:38;;;;;;;13.38;2.58;;;10.30;79.40;;;;;;5006377;28;20093;-77
2023/05/16 05:52:05;;;;;;;12.27;2.60;;;10.40;80.10;;;;;;5000490;28;20058;-76
2023/05/16 05:54:32;;;;;;;13.50;2.13;;;10.40;79.10;;;;;;5005105;28;20053;-77
2023/05/16 05:56:59;;;;;;;11.63;2.60;;;10.40;79.20;;;;;;5011338;28;20492;-77
2023/05/16 05:59:26;;;;;;;11.55;2.35;;;10.50;78.90;;;;;;5008065;28;20053;-77
2023/05/16 06:01:53;;;;;;;12.07;1.85;;;10.60;79.40;;;;;;5006506;28;20499;-77
2023/05/16 06:04:20;;;;;;;6.47;1.90;;;10.60;79.20;;;;;;5007064;28;20493;-77
2023/05/16 06:06:48;;;;;;;10.80;2.08;;;10.50;78.90;;;;;;5005535;28;20054;-77
2023/05/16 06:09:15;;;;;;;19.17;2.55;;;10.60;78.80;;;;;;5023647;28;20049;-76
2023/05/16 06:11:44;;;;;;;10.30;2.20;;;10.60;78.50;;;;;;5009819;28;20170;-76
2023/05/16 06:14:15;;;;;;;11.40;1.95;;;10.70;79.20;;;;;;5002954;28;20060;-76
2023/05/16 06:16:42;;;;;;;9.48;1.95;;;10.70;78.30;;;;;;5006375;28;20104;-77
2023/05/16 06:19:11;;;;;;;7.30;1.77;;;10.70;78.50;;;;;;5005761;28;20052;-77
2023/05/16 06:21:38;;;;;;;18.80;2.13;;;10.70;79.10;;;;;;5010145;28;20404;-77
2023/05/16 06:24:05;;;;;;;17.60;2.90;;;10.70;78.60;;;;;;5001964;28;20046;-80
2023/05/16 06:26:32;;;;;;;15.52;2.83;;;10.70;78.10;;;;;;4998773;28;20054;-76
2023/05/16 06:28:59;;;;;;;13.82;3.22;;;10.70;78.40;;;;;;5006751;28;20057;-76
2023/05/16 06:31:26;;;;;;;11.82;1.98;;;10.70;79.80;;;;;;5008144;28;20045;-76
2023/05/16 06:33:53;;;;;;;11.02;2.35;;;10.70;77.90;;;;;;5001979;28;20144;-76
2023/05/16 06:36:19;;;;;;;10.02;2.53;;;10.70;77.50;;;;;;5004367;28;20053;-76
2023/05/16 06:38:46;;;;;;;14.38;2.42;;;10.70;77.60;;;;;;4998391;28;20050;-76
2023/05/16 06:41:13;;;;;;;10.90;3.33;;;10.70;77.70;;;;;;5003666;28;20054;-76
2023/05/16 06:43:40;;;;;;;14.70;2.40;;;10.70;77.30;;;;;;5005957;28;20053;-77
2023/05/16 06:46:07;;;;;;;7.65;2.15;;;10.70;77.00;;;;;;5003373;28;20057;-77
2023/05/16 06:48:34;;;;;;;16.27;2.28;;;10.70;76.80;;;;;;5008195;28;20085;-77
2023/05/16 06:51:01;;;;;;;25.60;2.38;;;10.70;76.60;;;;;;5010203;28;20084;-76
2023/05/16 06:53:28;;;;;;;17.05;2.78;;;10.80;77.20;;;;;;4998734;28;20149;-76
2023/05/16 06:55:55;;;;;;;19.38;2.70;;;10.80;77.30;;;;;;5003677;28;20085;-76
2023/05/16 06:58:22;;;;;;;10.80;1.92;;;10.80;78.10;;;;;;5012490;28;20052;-77
2023/05/16 07:00:49;;;;;;;9.93;1.90;;;10.80;77.70;;;;;;5007630;28;20125;-76
2023/05/16 07:03:17;;;;;;;12.68;3.40;;;10.80;78.60;;;;;;5001045;28;20049;-76
2023/05/16 07:05:44;;;;;;;12.52;2.00;;;10.90;77.90;;;;;;5002194;28;20096;-77
2023/05/16 07:08:11;;;;;;;15.85;2.50;;;10.90;77.90;;;;;;5001462;28;20046;-77
2023/05/16 07:10:38;;;;;;;19.20;2.58;;;11.00;78.30;;;;;;5001415;28;20101;-76
2023/05/16 07:13:05;;;;;;;11.35;2.88;;;11.00;78.70;;;;;;5002763;28;20081;-76
2023/05/16 07:15:32;;;;;;;15.27;2.08;;;11.00;78.60;;;;;;5003981;28;20153;-77
2023/05/16 07:17:59;;;;;;;23.52;2.50;;;11.00;78.50;;;;;;5025150;28;20542;-76
2023/05/16 07:20:26;;;;;;;17.33;2.47;;;11.00;78.60;;;;;;5003661;28;20046;-76
2023/05/16 07:22:56;;;;;;;8.35;2.05;;;11.10;78.10;;;;;;5006239;28;20132;-76
2023/05/16 07:25:24;;;;;;;14.18;1.70;;;11.10;78.80;;;;;;5008689;28;20057;-76
2023/05/16 07:27:51;;;;;;;16.80;2.50;;;11.20;77.90;;;;;;5005950;28;20080;-76
2023/05/16 07:30:18;;;;;;;16.73;2.92;;;11.10;77.00;;;;;;5011510;28;20053;-77
2023/05/16 07:32:45;;;;;;;13.40;2.25;;;11.10;77.10;;;;;;5011296;28;20487;-77
2023/05/16 07:35:12;;;;;;;15.70;2.47;;;11.10;76.90;;;;;;5006747;28;20128;-76
2023/05/16 07:37:41;;;;;;;14.27;2.40;;;11.10;76.60;;;;;;5007947;28;20054;-76
2023/05/16 07:40:11;;;;;;;17.50;2.40;;;11.20;77.30;;;;;;5014095;28;20128;-76
2023/05/16 07:42:38;;;;;;;9.80;2.22;;;11.20;76.40;;;;;;5006517;28;20104;-76
2023/05/16 07:45:06;;;;;;;17.95;2.30;;;11.20;76.80;;;;;;5011666;28;20049;-76
2023/05/16 07:47:33;;;;;;;10.43;2.03;;;11.20;77.40;;;;;;5005065;28;20062;-76
2023/05/16 07:50:00;;;;;;;19.10;2.10;;;11.20;76.40;;;;;;5002744;28;20513;-76
2023/05/16 07:52:27;;;;;;;10.80;2.47;;;11.20;76.20;;;;;;5001381;28;20494;-76
2023/05/16 07:54:54;;;;;;;19.10;2.30;;;11.20;76.60;;;;;;5005693;28;20493;-76
2023/05/16 07:57:21;;;;;;;21.58;2.25;;;11.20;76.20;;;;;;5014619;28;20116;-76
2023/05/16 07:59:51;;;;;;;11.18;1.73;;;11.30;77.70;;;;;;5006080;28;20082;-76
2023/05/16 08:02:18;;;;;;;14.27;2.47;;;11.30;77.00;;;;;;5005413;28;20542;-76
2023/05/16 08:04:45;;;;;;;13.85;1.98;;;11.30;76.60;;;;;;5003223;28;20061;-77
2023/05/16 08:07:12;;;;;;;12.98;2.10;;;11.30;74.70;;;;;;5005520;28;20129;-76
2023/05/16 08:09:39;;;;;;;18.40;2.13;;;11.20;74.90;;;;;;5009133;28;20046;-76
2023/05/16 08:12:07;;;;;;;16.73;2.22;;;11.20;74.70;;;;;;5002623;28;20056;-77
2023/05/16 08:14:35;;;;;;;15.95;2.30;;;11.20;73.60;;;;;;5006753;28;20053;-76
2023/05/16 08:17:02;;;;;;;21.60;2.20;;;11.20;73.70;;;;;;5012847;28;20510;-77
2023/05/16 08:19:31;;;;;;;14.65;2.15;;;11.30;73.90;;;;;;5007989;28;20115;-77
2023/05/16 08:21:58;;;;;;;18.15;2.65;;;11.20;74.30;;;;;;5016747;23;20073;-71
2023/05/16 08:24:25;;;;;;;18.90;3.05;;;11.30;75.40;;;;;;4976317;28;20129;-71
2023/05/16 08:26:52;;;;;;;16.20;2.85;;;11.30;74.60;;;;;;4970676;28;20065;-71
2023/05/16 08:29:19;;;;;;;13.38;3.58;;;11.20;73.80;;;;;;4965535;28;20237;-71
2023/05/16 08:31:46;;;;;;;16.90;2.40;;;11.20;73.90;;;;;;4969297;28;20105;-71
2023/05/16 08:34:13;;;;;;;19.67;2.42;;;11.10;73.30;;;;;;4979008;28;20046;-70
2023/05/16 08:37:01;;;;;;;15.07;2.28;;;11.10;75.90;;;;;;4965826;28;20446;-70
2023/05/16 08:39:29;;;;;;;67.45;4.88;;;11.10;74.60;;;;;;4985711;28;20046;-76
2023/05/16 08:42:04;;;;;;;18.85;2.58;;;11.20;75.30;;;;;;4975073;28;20042;-77
2023/05/16 08:44:31;;;;;;;22.23;3.10;;;11.30;74.60;;;;;;4969023;28;20050;-77
2023/05/16 08:47:17;;;;;;;12.05;2.50;;;11.30;73.50;;;;;;4968124;28;20667;-77
2023/05/16 08:49:47;;;;;;;22.52;2.20;;;11.30;73.30;;;;;;4991648;28;20138;-77
2023/05/16 08:52:19;;;;;;;10.52;2.15;;;11.30;72.70;;;;;;4994391;28;20136;-77
2023/05/16 08:54:49;;;;;;;22.50;2.67;;;11.30;71.70;;;;;;4990761;28;20731;-77
2023/05/16 08:57:35;;;;;;;30.17;2.63;;;11.20;70.70;;;;;;4991124;28;20130;-77
2023/05/16 09:00:10;;;;;;;14.13;2.00;;;11.30;70.90;;;;;;4973520;28;20161;-79
2023/05/16 09:02:42;;;;;;;14.43;1.60;;;11.40;71.00;;;;;;4986540;28;20144;-77
2023/05/16 09:05:13;;;;;;;17.63;2.30;;;11.50;69.70;;;;;;4988148;28;20407;-77
2023/05/16 09:07:41;;;;;;;15.55;1.90;;;11.60;68.30;;;;;;4979186;28;20471;-77
2023/05/16 09:10:10;;;;;;;13.00;1.55;;;11.80;67.60;;;;;;4991669;28;20042;-78
2023/05/16 09:12:38;;;;;;;12.05;1.77;;;11.90;68.30;;;;;;4972416;28;20046;-76
2023/05/16 09:15:06;;;;;;;15.77;1.65;;;12.00;65.80;;;;;;4986928;28;20086;-77
2023/05/16 09:17:43;;;;;;;7.18;1.30;;;12.10;64.30;;;;;;4986053;28;20054;-79
2023/05/16 09:20:15;;;;;;;11.55;1.52;;;12.30;64.90;;;;;;4986338;28;20484;-77
2023/05/16 09:22:55;;;;;;;9.00;1.50;;;12.40;63.30;;;;;;4985897;28;20042;-76
2023/05/16 09:25:26;;;;;;;10.40;1.75;;;12.60;64.60;;;;;;4992428;28;20064;-76
2023/05/16 09:27:59;;;;;;;7.75;1.40;;;13.90;63.80;;;;;;4982279;28;20103;-76
2023/05/16 09:30:35;;;;;;;10.10;1.60;;;15.40;58.20;;;;;;4984642;23;20831;-76
2023/05/16 09:33:06;;;;;;;13.52;1.38;;;16.10;54.00;;;;;;5002048;28;20053;-77
2023/05/16 09:35:33;;;;;;;10.35;1.02;;;15.70;52.30;;;;;;5004163;28;20112;-76
2023/05/16 09:38:16;;;;;;;9.07;1.58;;;15.50;54.80;;;;;;4994162;28;20053;-76
2023/05/16 09:40:44;;;;;;;12.35;1.70;;;15.70;56.00;;;;;;5001768;28;20136;-76
2023/05/16 09:43:15;;;;;;;9.88;1.05;;;15.80;54.80;;;;;;5000187;28;20057;-76
2023/05/16 09:45:47;;;;;;;15.00;1.40;;;15.30;54.00;;;;;;5002599;28;20053;-77
2023/05/16 09:48:15;;;;;;;13.35;1.13;;;15.30;52.40;;;;;;4997083;28;20050;-77
2023/05/16 09:50:53;;;;;;;4.75;1.15;;;14.90;52.60;;;;;;5005053;28;20721;-77
2023/05/16 09:53:27;;;;;;;8.60;1.20;;;14.90;55.10;;;;;;4994177;28;20414;-76
2023/05/16 09:56:06;;;;;;;7.25;1.10;;;15.30;55.80;;;;;;5003095;28;20398;-70
2023/05/16 09:58:34;;;;;;;11.95;1.50;;;15.40;53.70;;;;;;5000410;28;20560;-70
2023/05/16 10:01:02;;;;;;;5.82;1.10;;;15.00;52.60;;;;;;5000964;28;20050;-70
2023/05/16 10:03:30;;;;;;;8.20;1.35;;;15.10;55.40;;;;;;4998534;28;20053;-70
2023/05/16 10:05:58;;;;;;;7.43;1.15;;;14.70;54.20;;;;;;5009527;23;20094;-77
2023/05/16 10:08:26;;;;;;;9.88;1.88;;;14.70;55.70;;;;;;5009068;28;20092;-77
2023/05/16 10:10:55;;;;;;;26.58;2.20;;;14.70;54.50;;;;;;5003140;28;20403;-77
2023/05/16 10:13:33;;;;;;;12.05;1.42;;;14.90;57.00;;;;;;5004237;28;20045;-77
2023/05/16 10:18:42;;;;;;;13.73;1.45;;;17.60;50.70;;;;;;4978478;28;20054;-77
2023/05/16 10:21:13;;;;;;;7.75;1.05;;;17.60;49.30;;;;;;4980471;28;20566;-77
2023/05/16 10:23:47;;;;;;;5.90;1.52;;;17.50;49.00;;;;;;4975435;28;20093;-77
2023/05/16 10:26:16;;;;;;;28.45;2.35;;;17.00;47.40;;;;;;4958637;28;20050;-77
2023/05/16 10:28:44;;;;;;;7.75;1.70;;;16.50;49.20;;;;;;4981863;28;20054;-76
2023/05/16 10:31:11;;;;;;;10.30;1.45;;;16.30;50.60;;;;;;4983600;28;20050;-76
2023/05/16 10:33:39;;;;;;;8.00;1.20;;;16.30;52.80;;;;;;4963779;28;20150;-77
2023/05/16 10:36:08;;;;;;;7.28;1.23;;;16.60;53.00;;;;;;4973260;28;20057;-76
2023/05/16 10:38:36;;;;;;;6.38;1.10;;;16.90;49.50;;;;;;4977710;28;20141;-76
2023/05/16 10:41:05;;;;;;;10.98;1.63;;;16.90;49.70;;;;;;4983731;28;20567;-76
2023/05/16 10:43:32;;;;;;;12.32;1.40;;;16.60;49.90;;;;;;4982504;28;20046;-77
2023/05/16 10:46:06;;;;;;;17.70;2.05;;;16.40;50.60;;;;;;4967120;28;20117;-76
2023/05/16 10:48:37;;;;;;;9.80;1.77;;;16.20;50.30;;;;;;4982473;28;20100;-76
2023/05/16 10:51:22;;;;;;;7.43;1.48;;;16.00;52.30;;;;;;4989869;28;20050;-77
2023/05/16 10:53:53;;;;;;;8.85;1.48;;;16.10;49.10;;;;;;4988751;28;20089;-76
2023/05/16 10:56:26;;;;;;;16.40;1.58;;;15.90;48.80;;;;;;4963825;28;20054;-76
2023/05/16 10:58:54;;;;;;;8.15;1.25;;;15.80;48.60;;;;;;4992297;28;20042;-76
2023/05/16 11:01:28;;;;;;;5.72;1.20;;;15.90;48.60;;;;;;4996286;28;20046;-77
2023/05/16 11:04:00;;;;;;;10.23;1.20;;;15.80;49.10;;;;;;4995451;28;20058;-77
2023/05/16 11:06:28;;;;;;;6.80;1.13;;;15.50;48.80;;;;;;4999628;28;20053;-76
2023/05/16 11:09:10;;;;;;;5.25;1.27;;;16.30;51.40;;;;;;4997559;28;20085;-76
2023/05/16 11:11:47;;;;;;;5.32;0.93;;;17.90;48.10;;;;;;4986153;28;20753;-76
2023/05/16 11:14:33;;;;;;;14.45;1.60;;;18.30;46.50;;;;;;4994553;28;20057;-80
2023/05/16 11:17:18;;;;;;;12.30;1.23;;;17.80;44.60;;;;;;4981769;28;20424;-78
2023/05/16 11:19:45;;;;;;;;;;;17.30;46.60;;;;;;4960569;28;20050;-78
2023/05/16 11:22:19;;;;;;;9.52;1.10;;;16.90;46.30;;;;;;4981900;28;20003;-78
2023/05/16 11:24:54;;;;;;;7.78;1.15;;;16.70;47.60;;;;;;4972857;28;20085;-78
2023/05/16 11:27:32;;;;;;;7.35;2.05;;;17.10;50.30;;;;;;4983387;28;20803;-77
2023/05/16 11:30:03;;;;;;;14.65;1.88;;;17.90;48.70;;;;;;4984283;28;20510;-78
2023/05/16 11:32:33;;;;;;;8.50;1.35;;;17.90;45.00;;;;;;4975214;28;20504;-77
2023/05/16 11:35:02;;;;;;;10.27;1.35;;;17.40;43.70;;;;;;4977561;28;20519;-78
2023/05/16 11:37:29;;;;;;;10.73;1.67;;;16.70;44.30;;;;;;4962442;28;20515;-77
2023/05/16 11:40:00;;;;;;;7.50;1.25;;;16.90;49.80;;;;;;4986740;28;20553;-77
2023/05/16 11:42:33;;;;;;;5.65;1.27;;;17.40;45.50;;;;;;4980541;28;20054;-77
2023/05/16 11:45:08;;;;;;;12.45;1.23;;;17.20;46.10;;;;;;4978913;28;20058;-77
2023/05/16 11:47:37;;;;;;;5.53;1.30;;;17.20;46.60;;;;;;4965140;28;20054;-77
2023/05/16 11:50:14;;;;;;;5.97;1.38;;;16.70;45.10;;;;;;4967357;28;20584;-77
2023/05/16 11:52:46;;;;;;;5.88;1.10;;;17.00;47.10;;;;;;4986689;28;20058;-77
2023/05/16 11:55:17;;;;;;;10.77;1.20;;;17.00;44.80;;;;;;4969090;28;20048;-78
2023/05/16 11:57:59;;;;;;;8.15;1.80;;;17.40;48.70;;;;;;4987837;28;20148;-77
2023/05/16 12:00:26;;;;;;;10.25;1.30;;;18.10;45.20;;;;;;4985364;28;20509;-77
2023/05/16 12:02:59;;;;;;;6.63;0.98;;;18.40;45.60;;;;;;4982783;28;20051;-77
2023/05/16 12:05:29;;;;;;;6.57;1.13;;;19.10;42.50;;;;;;4984133;28;20054;-78
2023/05/16 12:07:58;;;;;;;13.75;1.77;;;19.90;42.80;;;;;;4980882;28;20047;-78
2023/05/16 12:10:25;;;;;;;6.03;1.00;;;20.10;40.20;;;;;;4966645;28;20104;-78
2023/05/16 12:12:53;;;;;;;7.93;1.13;;;19.80;40.60;;;;;;4963675;28;20062;-78
2023/05/16 12:15:20;;;;;;;11.00;1.02;;;19.10;40.40;;;;;;4963843;28;20125;-78
2023/05/16 12:17:47;;;;;;;11.20;1.00;;;18.50;40.80;;;;;;4984350;28;20053;-78
2023/05/16 12:20:15;;;;;;;9.32;1.33;;;18.20;41.20;;;;;;4962915;28;20057;-77
2023/05/16 12:22:43;;;;;;;5.50;1.27;;;18.00;43.20;;;;;;4978868;28;20050;-77
2023/05/16 12:25:35;;;;;;;14.63;1.83;;;18.00;45.00;;;;;;4984384;28;20295;-77
2023/05/16 12:28:03;;;;;;;12.32;1.30;;;18.30;45.40;;;;;;4983961;28;20142;-77
2023/05/16 12:30:31;;;;;;;7.78;1.40;;;19.20;41.60;;;;;;4965279;28;21044;-78
2023/05/16 12:33:03;;;;;;;11.07;1.25;;;18.70;42.80;;;;;;4984244;28;20056;-78
2023/05/16 12:35:36;;;;;;;19.00;1.58;;;18.10;43.80;;;;;;4961509;28;20077;-78
2023/05/16 12:38:07;;;;;;;6.88;1.00;;;18.40;44.40;;;;;;4983598;28;20137;-79
2023/05/16 12:40:38;;;;;;;9.70;1.75;;;19.20;45.90;;;;;;4981996;28;20066;-77
2023/05/16 12:43:16;;;;;;;7.25;1.50;;;19.70;41.00;;;;;;4985955;28;20402;-77
2023/05/16 12:45:50;;;;;;;5.97;1.10;;;19.70;40.30;;;;;;4982488;28;20058;-77
2023/05/16 12:48:17;;;;;;;6.38;1.23;;;19.90;42.90;;;;;;4984987;28;20349;-78
2023/05/16 12:50:47;;;;;;;4.22;1.20;;;19.40;41.40;;;;;;4964117;28;20058;-78